Time;durP1;ratioP1;P1;durP2;ratioP2;P2;SDS_P1;SDS_P2;PMS_P1;PMS_P2;Temp;Humidity;BMP_temperature;BMP_pressure;BME280_temperature;BME280_humidity;BME280_pressure;Samples;Min_cycle;Max_cycle;Signal;HPM_P1;HPM_P2
2023/03/24 00:00:12;;;;;;;11.88;6.45;;;10.90;99.90;;;;;;4944633;29;20043;-76
2023/03/24 00:02:40;;;;;;;14.68;7.65;;;10.90;99.90;;;;;;4944010;29;20402;-76
2023/03/24 00:05:17;;;;;;;9.77;6.25;;;10.90;99.90;;;;;;4930708;29;20079;-76
2023/03/24 00:07:43;;;;;;;9.57;6.93;;;10.90;99.90;;;;;;4942637;29;20050;-76
2023/03/24 00:10:16;;;;;;;12.75;6.82;;;10.90;99.90;;;;;;4945398;29;20043;-76
2023/03/24 00:12:42;;;;;;;;;;;10.90;99.90;;;;;;4927695;28;20465;-76
2023/03/24 00:15:14;;;;;;;10.95;7.18;;;10.90;99.90;;;;;;4948197;28;19922;-76
2023/03/24 00:17:40;;;;;;;10.48;6.72;;;10.90;99.90;;;;;;4947633;29;20040;-75
2023/03/24 00:20:13;;;;;;;10.60;6.38;;;10.90;99.90;;;;;;4944939;29;20046;-77
2023/03/24 00:22:41;;;;;;;12.77;6.90;;;10.90;99.90;;;;;;4940034;28;20046;-76
2023/03/24 00:25:08;;;;;;;10.20;6.85;;;10.80;99.90;;;;;;4928437;29;20204;-76
2023/03/24 00:27:36;;;;;;;12.32;7.40;;;10.90;99.90;;;;;;4934012;29;20098;-76
2023/03/24 00:30:05;;;;;;;11.15;6.63;;;10.90;99.90;;;;;;4939908;29;20438;-76
2023/03/24 00:32:31;;;;;;;11.50;6.80;;;10.80;99.90;;;;;;4954865;28;20042;-76
2023/03/24 00:34:57;;;;;;;11.57;6.65;;;10.80;99.90;;;;;;4936546;28;20401;-76
2023/03/24 00:37:23;;;;;;;11.00;6.63;;;10.90;99.90;;;;;;4937116;29;20036;-77
2023/03/24 00:39:49;;;;;;;9.20;6.35;;;10.80;99.90;;;;;;4940794;29;20043;-77
2023/03/24 00:42:15;;;;;;;10.82;6.40;;;10.90;99.90;;;;;;4949569;28;20046;-77
2023/03/24 00:44:43;;;;;;;12.63;7.25;;;10.90;99.90;;;;;;4955886;28;20047;-77
2023/03/24 00:47:10;;;;;;;9.82;6.80;;;10.90;99.90;;;;;;4951544;28;20042;-76
2023/03/24 00:49:41;;;;;;;9.52;5.97;;;10.90;99.90;;;;;;4935211;29;20051;-76
2023/03/24 00:52:13;;;;;;;9.95;6.55;;;10.90;99.90;;;;;;4920525;29;20467;-77
2023/03/24 00:54:39;;;;;;;9.85;6.30;;;10.90;99.90;;;;;;4936686;29;20071;-76
2023/03/24 00:57:11;;;;;;;7.60;5.97;;;10.90;99.90;;;;;;4920743;29;20046;-76
2023/03/24 00:59:41;;;;;;;7.15;6.00;;;10.90;99.90;;;;;;4916780;28;20035;-76
2023/03/24 01:02:10;;;;;;;11.02;6.68;;;11.00;99.90;;;;;;4932853;29;20487;-76
2023/03/24 01:04:37;;;;;;;6.80;5.28;;;11.00;99.90;;;;;;4925125;29;20035;-76
2023/03/24 01:07:06;;;;;;;9.13;5.63;;;11.00;99.90;;;;;;4928557;29;20422;-76
2023/03/24 01:09:35;;;;;;;10.02;6.35;;;11.00;99.90;;;;;;4943488;28;20501;-76
2023/03/24 01:12:04;;;;;;;8.57;6.10;;;11.00;99.90;;;;;;4935259;29;20039;-76
2023/03/24 01:14:31;;;;;;;9.73;6.35;;;10.90;99.90;;;;;;4918618;29;20038;-75
2023/03/24 01:16:59;;;;;;;11.68;6.18;;;11.00;99.90;;;;;;4917711;29;20074;-76
2023/03/24 01:19:25;;;;;;;10.02;5.72;;;10.90;99.90;;;;;;4938463;28;20042;-76
2023/03/24 01:21:53;;;;;;;10.10;6.40;;;10.90;99.90;;;;;;4939723;29;20509;-76
2023/03/24 01:24:24;;;;;;;10.10;6.72;;;11.00;99.90;;;;;;4949892;28;20129;-76
2023/03/24 01:26:50;;;;;;;8.43;6.35;;;10.90;99.90;;;;;;4908843;29;20455;-74
2023/03/24 01:29:16;;;;;;;9.18;6.13;;;11.00;99.90;;;;;;4939901;28;20066;-76
2023/03/24 01:31:41;;;;;;;9.27;6.03;;;11.00;99.90;;;;;;4943265;29;20086;-76
2023/03/24 01:34:07;;;;;;;9.98;6.50;;;11.00;99.90;;;;;;4946062;29;20038;-76
2023/03/24 01:36:32;;;;;;;8.68;6.30;;;10.90;99.90;;;;;;4935581;29;20149;-76
2023/03/24 01:38:59;;;;;;;9.18;5.90;;;11.00;99.90;;;;;;4931258;29;20528;-76
2023/03/24 01:41:30;;;;;;;9.57;6.40;;;11.00;99.90;;;;;;4919140;29;20056;-75
2023/03/24 01:43:56;;;;;;;6.90;5.38;;;11.00;99.90;;;;;;4942082;29;20035;-76
2023/03/24 01:46:22;;;;;;;9.60;5.90;;;11.00;99.90;;;;;;4952877;28;20047;-76
2023/03/24 01:48:55;;;;;;;7.70;5.75;;;11.00;99.90;;;;;;4948018;28;20034;-76
2023/03/24 01:51:24;;;;;;;;;;;11.00;99.90;;;;;;4935048;29;20126;-75
2023/03/24 01:54:03;;;;;;;7.63;5.70;;;11.10;99.90;;;;;;4936992;29;19919;-76
2023/03/24 01:56:35;;;;;;;7.88;6.47;;;11.10;99.90;;;;;;4939699;29;20035;-75
2023/03/24 01:59:05;;;;;;;7.50;6.13;;;11.10;99.90;;;;;;4957586;28;20523;-75
2023/03/24 02:01:31;;;;;;;7.30;5.90;;;11.10;99.90;;;;;;4965543;28;20508;-75
2023/03/24 02:04:05;;;;;;;8.70;6.30;;;11.10;99.90;;;;;;4953782;28;20043;-76
2023/03/24 02:06:42;;;;;;;7.03;6.32;;;11.10;99.90;;;;;;4923011;29;20043;-75
2023/03/24 02:09:10;;;;;;;6.43;5.80;;;11.10;99.90;;;;;;4939265;29;20046;-76
2023/03/24 02:11:37;;;;;;;9.00;6.38;;;11.10;99.90;;;;;;4939468;29;20043;-75
2023/03/24 02:14:04;;;;;;;7.13;6.43;;;11.10;99.90;;;;;;4939534;29;20537;-76
2023/03/24 02:16:48;;;;;;;7.63;6.00;;;11.10;99.90;;;;;;4931121;29;20066;-76
2023/03/24 02:19:49;;;;;;;7.65;6.05;;;11.10;99.90;;;;;;4935945;29;20050;-75
2023/03/24 02:22:53;;;;;;;6.93;5.93;;;11.20;99.90;;;;;;4955047;28;20046;-76
2023/03/24 02:25:30;;;;;;;10.05;6.57;;;11.20;99.90;;;;;;4948815;28;20039;-75
2023/03/24 02:28:20;;;;;;;11.15;6.22;;;11.20;99.90;;;;;;4930401;29;20134;-76
2023/03/24 02:31:13;;;;;;;7.28;5.93;;;11.20;99.90;;;;;;4934816;29;20190;-75
2023/03/24 02:33:44;;;;;;;7.47;5.65;;;11.20;99.90;;;;;;4943614;29;20038;-76
2023/03/24 02:36:41;;;;;;;6.80;5.68;;;11.20;99.90;;;;;;4930253;29;20046;-76
2023/03/24 02:39:33;;;;;;;8.18;5.68;;;11.30;99.90;;;;;;4929511;29;20047;-75
2023/03/24 02:42:07;;;;;;;8.20;6.57;;;11.30;99.90;;;;;;4933158;29;20088;-76
2023/03/24 02:44:50;;;;;;;9.40;6.38;;;11.30;99.90;;;;;;4920297;29;20442;-75
2023/03/24 02:47:28;;;;;;;9.40;6.70;;;11.30;99.90;;;;;;4937032;28;20042;-76
2023/03/24 02:50:16;;;;;;;8.40;6.85;;;11.30;99.90;;;;;;4945903;29;20043;-76
2023/03/24 02:52:59;;;;;;;8.65;6.35;;;11.30;99.90;;;;;;4919652;29;20040;-76
2023/03/24 02:55:33;;;;;;;7.43;6.57;;;11.30;99.90;;;;;;4929313;29;20035;-75
2023/03/24 02:58:06;;;;;;;9.48;6.88;;;11.30;99.90;;;;;;4916541;29;20119;-76
2023/03/24 03:00:45;;;;;;;7.97;6.70;;;11.30;99.90;;;;;;4946476;28;20057;-76
2023/03/24 03:03:22;;;;;;;8.02;6.88;;;11.30;99.90;;;;;;4938450;29;20048;-76
2023/03/24 03:05:58;;;;;;;7.50;6.25;;;11.30;99.90;;;;;;4938049;29;20401;-76
2023/03/24 03:08:31;;;;;;;9.50;7.07;;;11.20;99.90;;;;;;4936430;29;20102;-76
2023/03/24 03:10:57;;;;;;;;;;;11.30;99.90;;;;;;4934360;29;20031;-76
2023/03/24 03:13:26;;;;;;;7.68;6.55;;;11.30;99.90;;;;;;4919436;29;19918;-76
2023/03/24 03:15:55;;;;;;;7.07;6.07;;;11.30;99.90;;;;;;4903657;29;20067;-76
2023/03/24 03:18:32;;;;;;;7.43;6.70;;;11.30;99.90;;;;;;4921755;28;20043;-75
2023/03/24 03:21:08;;;;;;;8.23;7.18;;;11.30;99.90;;;;;;4939135;29;20114;-76
2023/03/24 03:23:41;;;;;;;10.50;6.47;;;11.30;99.90;;;;;;4927001;29;20048;-76
2023/03/24 03:26:12;;;;;;;8.77;6.97;;;11.30;99.90;;;;;;4922220;29;20461;-76
2023/03/24 03:28:48;;;;;;;8.57;6.85;;;11.40;99.90;;;;;;4932779;28;20402;-76
2023/03/24 03:31:20;;;;;;;9.82;7.43;;;11.30;99.90;;;;;;4947734;28;20093;-76
2023/03/24 03:33:51;;;;;;;8.05;6.97;;;11.30;99.90;;;;;;4934526;28;20382;-75
2023/03/24 03:36:26;;;;;;;8.18;6.63;;;11.40;99.90;;;;;;4953124;28;20066;-76
2023/03/24 03:39:12;;;;;;;5.70;5.10;;;11.30;99.90;;;;;;4926981;29;20054;-76
2023/03/24 03:41:39;;;;;;;4.10;2.80;;;11.30;99.90;;;;;;4944182;28;20123;-75
2023/03/24 03:44:05;;;;;;;4.97;2.20;;;11.10;99.90;;;;;;4936485;28;20038;-76
2023/03/24 03:46:30;;;;;;;4.18;2.13;;;10.90;99.90;;;;;;4928553;29;20154;-75
2023/03/24 03:48:56;;;;;;;6.13;2.20;;;10.80;99.90;;;;;;4942771;28;20635;-76
2023/03/24 03:51:21;;;;;;;6.00;2.40;;;10.70;99.90;;;;;;4947173;28;20047;-76
2023/03/24 03:53:57;;;;;;;4.75;2.00;;;10.60;99.90;;;;;;4950060;28;20042;-76
2023/03/24 03:56:27;;;;;;;5.43;2.40;;;10.50;99.90;;;;;;4952125;28;20050;-75
2023/03/24 03:58:53;;;;;;;7.38;3.13;;;10.40;99.90;;;;;;4949227;29;20143;-75
2023/03/24 04:01:24;;;;;;;7.10;3.22;;;10.40;99.90;;;;;;4929502;28;20149;-76
2023/03/24 04:03:59;;;;;;;6.82;2.80;;;10.40;99.90;;;;;;4940274;28;20042;-76
2023/03/24 04:06:32;;;;;;;8.27;2.08;;;10.30;99.90;;;;;;4932617;28;20085;-76
2023/03/24 04:10:03;;;;;;;3.42;1.80;;;10.20;99.90;;;;;;4968048;28;20042;-76
2023/03/24 04:12:58;;;;;;;5.65;2.00;;;10.10;99.90;;;;;;4883442;29;20131;-75
2023/03/24 04:15:32;;;;;;;5.82;1.73;;;10.10;99.90;;;;;;4878119;29;20048;-76
2023/03/24 04:18:43;;;;;;;7.32;2.00;;;10.00;99.90;;;;;;4943663;28;20486;-76
2023/03/24 04:21:35;;;;;;;5.55;2.10;;;10.00;99.90;;;;;;4944098;28;20494;-76
2023/03/24 04:24:27;;;;;;;5.35;1.75;;;10.00;99.90;;;;;;4956029;28;20081;-76
2023/03/24 04:26:59;;;;;;;6.90;1.70;;;10.00;99.90;;;;;;4941096;29;20048;-77
2023/03/24 04:29:25;;;;;;;7.93;2.35;;;10.00;99.90;;;;;;4935084;29;20071;-76
2023/03/24 04:32:23;;;;;;;7.65;2.30;;;10.00;99.90;;;;;;4936773;29;20074;-76
2023/03/24 04:35:00;;;;;;;8.52;2.42;;;10.00;99.90;;;;;;4935613;29;20043;-76
2023/03/24 04:37:31;;;;;;;7.13;3.20;;;10.00;99.90;;;;;;4960695;28;20629;-76
2023/03/24 04:40:00;;;;;;;8.05;2.80;;;9.90;99.90;;;;;;4943204;29;20046;-76
2023/03/24 04:42:47;;;;;;;6.13;2.63;;;10.00;99.90;;;;;;4928120;29;20471;-76
2023/03/24 04:45:14;;;;;;;9.68;3.30;;;10.00;99.90;;;;;;4926827;29;20063;-76
2023/03/24 04:47:49;;;;;;;9.10;3.22;;;10.00;99.90;;;;;;4928885;29;20046;-75
2023/03/24 04:50:29;;;;;;;8.15;2.83;;;9.90;99.90;;;;;;4920314;29;20035;-76
2023/03/24 04:52:56;;;;;;;10.57;3.10;;;9.90;99.90;;;;;;4925375;29;20032;-76
2023/03/24 04:55:43;;;;;;;11.60;3.63;;;9.80;99.90;;;;;;4922942;28;20054;-76
2023/03/24 04:58:08;;;;;;;10.55;3.08;;;9.70;99.90;;;;;;4964072;28;20042;-75
2023/03/24 05:00:35;;;;;;;6.80;2.35;;;9.70;99.90;;;;;;4955619;28;20073;-75
2023/03/24 05:03:01;;;;;;;11.38;3.53;;;9.60;99.90;;;;;;4949466;29;20047;-76
2023/03/24 05:05:27;;;;;;;9.60;3.03;;;9.60;99.90;;;;;;4951877;28;20071;-76
2023/03/24 05:07:53;;;;;;;7.30;2.72;;;9.50;99.90;;;;;;4941039;29;20044;-75
2023/03/24 05:10:19;;;;;;;7.90;2.45;;;9.40;99.90;;;;;;4917403;29;20044;-75
2023/03/24 05:12:45;;;;;;;10.32;3.03;;;9.40;99.90;;;;;;4902642;29;20049;-75
2023/03/24 05:15:12;;;;;;;10.43;2.58;;;9.30;99.90;;;;;;4934971;29;20039;-76
2023/03/24 05:17:37;;;;;;;7.50;2.53;;;9.30;99.90;;;;;;4944260;28;20031;-75
2023/03/24 05:20:09;;;;;;;6.75;2.83;;;9.20;99.90;;;;;;4936283;29;20126;-75
2023/03/24 05:22:35;;;;;;;8.55;3.17;;;9.20;99.90;;;;;;4935870;29;20046;-76
2023/03/24 05:25:01;;;;;;;7.95;2.70;;;9.10;99.90;;;;;;4943389;29;20415;-75
2023/03/24 05:27:26;;;;;;;8.27;2.92;;;9.10;99.90;;;;;;4942547;29;20035;-76
2023/03/24 05:29:52;;;;;;;8.27;2.70;;;9.10;99.90;;;;;;4915297;29;20407;-76
2023/03/24 05:32:17;;;;;;;6.85;2.42;;;9.10;99.90;;;;;;4916817;29;20044;-75
2023/03/24 05:34:43;;;;;;;6.45;2.60;;;9.00;99.90;;;;;;4941465;28;20035;-75
2023/03/24 05:37:11;;;;;;;10.48;3.00;;;9.00;99.90;;;;;;4947106;29;20035;-77
2023/03/24 05:39:37;;;;;;;10.60;3.22;;;9.00;99.90;;;;;;4958892;28;20054;-76
2023/03/24 05:42:02;;;;;;;9.80;3.05;;;9.00;99.90;;;;;;4952223;28;20039;-76
2023/03/24 05:44:28;;;;;;;7.43;2.97;;;9.00;99.90;;;;;;4920861;29;20375;-75
2023/03/24 05:46:54;;;;;;;9.27;3.10;;;9.00;99.90;;;;;;4931250;29;20049;-75
2023/03/24 05:49:19;;;;;;;8.32;2.88;;;9.00;99.90;;;;;;4956507;28;20382;-76
2023/03/24 05:51:45;;;;;;;7.43;2.92;;;9.00;99.90;;;;;;4972457;28;20043;-76
2023/03/24 05:54:10;;;;;;;10.80;2.92;;;9.00;99.90;;;;;;4933687;29;20032;-75
2023/03/24 05:56:36;;;;;;;10.25;3.20;;;9.00;99.90;;;;;;4946275;28;20055;-76
2023/03/24 05:59:01;;;;;;;9.00;2.80;;;9.00;99.90;;;;;;4954100;28;20401;-76
2023/03/24 06:01:27;;;;;;;6.13;2.45;;;9.00;99.90;;;;;;4958864;28;20038;-76
2023/03/24 06:03:53;;;;;;;9.90;3.20;;;9.00;99.90;;;;;;4953136;28;20039;-76
2023/03/24 06:06:18;;;;;;;5.85;2.50;;;9.00;99.90;;;;;;4942769;28;20413;-75
2023/03/24 06:08:44;;;;;;;10.82;2.97;;;9.10;99.90;;;;;;4962764;28;20410;-75
2023/03/24 06:11:10;;;;;;;10.15;3.38;;;9.10;99.90;;;;;;4938862;29;20039;-76
2023/03/24 06:13:36;;;;;;;10.30;3.60;;;9.20;99.90;;;;;;4949957;28;20035;-76
2023/03/24 06:16:02;;;;;;;9.75;3.83;;;9.20;99.90;;;;;;4948964;29;20042;-76
2023/03/24 06:18:32;;;;;;;15.77;4.53;;;9.30;99.90;;;;;;4941688;29;20065;-76
2023/03/24 06:20:58;;;;;;;8.23;3.00;;;9.30;99.90;;;;;;4920208;29;20154;-76
2023/03/24 06:23:26;;;;;;;10.73;3.00;;;9.40;99.90;;;;;;4920472;29;20099;-75
2023/03/24 06:25:57;;;;;;;10.70;3.10;;;9.40;99.90;;;;;;4925885;29;20054;-75
2023/03/24 06:28:24;;;;;;;10.70;3.80;;;9.50;99.90;;;;;;4929372;28;20057;-76
2023/03/24 06:30:50;;;;;;;10.48;3.17;;;9.50;99.90;;;;;;4935177;29;20062;-73
2023/03/24 06:33:16;;;;;;;14.02;3.33;;;9.50;99.90;;;;;;4912004;29;20507;-75
2023/03/24 06:35:42;;;;;;;11.90;3.38;;;9.50;99.90;;;;;;4924256;29;20066;-75
2023/03/24 06:38:08;;;;;;;10.90;3.47;;;9.60;99.90;;;;;;4937366;29;20039;-75
2023/03/24 06:40:34;;;;;;;15.35;3.42;;;9.60;99.90;;;;;;4933437;28;20124;-75
2023/03/24 06:43:00;;;;;;;15.52;4.78;;;9.70;99.90;;;;;;4974025;28;20046;-75
2023/03/24 06:45:26;;;;;;;10.77;3.20;;;9.70;99.90;;;;;;4940325;29;20050;-75
2023/03/24 06:47:55;;;;;;;12.90;3.28;;;9.70;99.90;;;;;;4936736;29;20090;-74
2023/03/24 06:50:22;;;;;;;14.00;3.50;;;9.70;99.90;;;;;;4936336;28;20482;-75
2023/03/24 06:52:47;;;;;;;12.38;2.95;;;9.70;99.90;;;;;;4942122;29;20063;-74
2023/03/24 06:55:13;;;;;;;16.50;3.35;;;9.80;99.90;;;;;;4919781;29;20518;-75
2023/03/24 06:57:38;;;;;;;14.73;3.10;;;9.80;99.90;;;;;;4929425;29;20035;-75
2023/03/24 07:00:05;;;;;;;12.38;3.47;;;9.80;99.90;;;;;;4930509;29;20118;-75
2023/03/24 07:02:34;;;;;;;13.18;3.42;;;9.90;99.90;;;;;;4952265;29;20043;-75
2023/03/24 07:05:05;;;;;;;12.80;3.38;;;9.90;99.90;;;;;;4931726;28;20093;-75
2023/03/24 07:07:32;;;;;;;13.15;3.30;;;10.00;99.90;;;;;;4941236;28;20122;-76
2023/03/24 07:09:57;;;;;;;11.45;3.53;;;10.10;99.90;;;;;;4960817;28;20039;-75
2023/03/24 07:12:23;;;;;;;14.60;4.03;;;10.20;99.90;;;;;;4932689;29;20103;-76
2023/03/24 07:14:48;;;;;;;17.27;3.47;;;10.20;99.90;;;;;;4926191;29;20043;-75
2023/03/24 07:17:14;;;;;;;17.13;4.85;;;10.30;99.90;;;;;;4911266;28;20065;-74
2023/03/24 07:19:40;;;;;;;15.70;3.78;;;10.30;99.90;;;;;;4965642;28;20043;-76
2023/03/24 07:22:07;;;;;;;14.90;3.78;;;10.30;99.90;;;;;;4952614;28;20074;-75
2023/03/24 07:24:34;;;;;;;15.48;3.65;;;10.30;99.90;;;;;;4936588;29;20043;-73
2023/03/24 07:27:00;;;;;;;18.45;4.07;;;10.20;99.90;;;;;;4936931;29;20075;-76
2023/03/24 07:29:26;;;;;;;14.77;3.60;;;10.10;99.90;;;;;;4961903;28;20038;-75
2023/03/24 07:31:53;;;;;;;16.30;3.55;;;10.00;99.90;;;;;;4928551;29;20102;-75
2023/03/24 07:34:19;;;;;;;20.92;4.00;;;10.00;99.90;;;;;;4953543;28;20113;-75
2023/03/24 07:36:45;;;;;;;23.80;4.43;;;10.00;99.90;;;;;;4930012;29;20395;-77
2023/03/24 07:39:12;;;;;;;13.32;3.92;;;10.10;99.90;;;;;;4920997;29;20241;-75
2023/03/24 07:41:37;;;;;;;14.85;3.67;;;10.10;99.90;;;;;;4928862;28;20052;-75
2023/03/24 07:44:03;;;;;;;14.43;4.10;;;10.10;99.90;;;;;;4952341;28;20039;-74
2023/03/24 07:46:29;;;;;;;17.15;4.32;;;10.20;99.90;;;;;;4972036;28;20125;-75
2023/03/24 07:48:54;;;;;;;19.08;4.47;;;10.20;99.90;;;;;;4929509;29;20040;-74
2023/03/24 07:51:20;;;;;;;16.38;4.20;;;10.30;99.90;;;;;;4963724;28;20034;-76
2023/03/24 07:53:46;;;;;;;16.63;4.03;;;10.40;99.90;;;;;;4930658;29;20085;-75
2023/03/24 07:56:12;;;;;;;16.30;4.00;;;10.50;99.90;;;;;;4943139;28;20107;-75
2023/03/24 07:58:38;;;;;;;13.60;3.80;;;10.60;99.90;;;;;;4938960;29;20031;-76
2023/03/24 08:01:08;;;;;;;15.60;4.03;;;10.70;99.90;;;;;;4940279;28;20038;-76
2023/03/24 08:03:35;;;;;;;17.40;3.92;;;10.70;99.90;;;;;;4935421;28;20040;-77
2023/03/24 08:06:01;;;;;;;14.55;3.70;;;10.70;99.90;;;;;;4934574;29;20126;-77
2023/03/24 08:08:26;;;;;;;17.55;4.38;;;10.80;99.90;;;;;;4918440;29;20131;-75
2023/03/24 08:10:52;;;;;;;15.32;3.70;;;10.90;99.90;;;;;;4925165;29;20458;-74
2023/03/24 08:13:18;;;;;;;14.93;3.88;;;11.00;99.90;;;;;;4923056;28;20122;-76
2023/03/24 08:15:43;;;;;;;14.52;3.83;;;11.10;99.90;;;;;;4945317;29;20058;-75
2023/03/24 08:18:10;;;;;;;13.80;3.67;;;11.20;99.90;;;;;;4918249;29;20051;-75
2023/03/24 08:20:35;;;;;;;11.85;3.13;;;11.30;99.90;;;;;;4930021;28;20493;-75
2023/03/24 08:23:03;;;;;;;13.45;3.22;;;11.20;99.90;;;;;;4922745;28;20043;-74
2023/03/24 08:25:29;;;;;;;13.73;3.30;;;11.20;99.90;;;;;;4934887;29;20055;-74
2023/03/24 08:27:55;;;;;;;14.77;2.92;;;11.20;99.90;;;;;;4902712;29;20052;-74
2023/03/24 08:30:25;;;;;;;13.45;3.25;;;11.20;99.90;;;;;;4910848;29;20066;-74
2023/03/24 08:32:53;;;;;;;14.95;4.10;;;11.20;99.90;;;;;;4927486;29;20048;-74
2023/03/24 08:35:23;;;;;;;13.95;3.10;;;11.30;99.90;;;;;;4902620;29;20376;-74
2023/03/24 08:37:48;;;;;;;20.13;3.65;;;11.20;99.90;;;;;;4917947;29;20119;-75
2023/03/24 08:40:19;;;;;;;14.80;2.92;;;11.40;99.90;;;;;;4933735;29;20126;-75
2023/03/24 08:42:57;;;;;;;14.60;3.50;;;11.50;99.90;;;;;;4918608;29;20058;-74
2023/03/24 08:45:26;;;;;;;13.40;4.10;;;11.60;99.90;;;;;;4919578;29;20497;-74
2023/03/24 08:47:53;;;;;;;14.52;3.33;;;11.60;99.90;;;;;;4917802;29;20123;-74
2023/03/24 08:50:24;;;;;;;12.15;2.75;;;11.60;99.90;;;;;;4917992;29;20051;-74
2023/03/24 08:52:50;;;;;;;12.35;2.70;;;11.60;99.90;;;;;;4901909;29;20036;-75
2023/03/24 08:55:17;;;;;;;13.05;3.25;;;11.70;99.90;;;;;;4917910;29;20052;-74
2023/03/24 08:57:44;;;;;;;11.15;2.95;;;11.70;99.90;;;;;;4920273;29;20127;-74
2023/03/24 09:00:13;;;;;;;12.77;3.03;;;11.90;99.90;;;;;;4925404;29;20447;-74
2023/03/24 09:02:39;;;;;;;11.73;3.47;;;12.20;99.90;;;;;;4917658;29;20493;-75
2023/03/24 09:05:05;;;;;;;14.23;3.75;;;12.80;99.90;;;;;;4917988;29;20064;-75
2023/03/24 09:07:31;;;;;;;11.57;2.85;;;12.80;99.90;;;;;;4905874;29;20482;-74
2023/03/24 09:09:56;;;;;;;15.25;3.13;;;12.70;99.90;;;;;;4945605;29;20398;-75
2023/03/24 09:12:22;;;;;;;14.73;3.05;;;12.90;99.90;;;;;;4936464;29;20043;-74
2023/03/24 09:14:49;;;;;;;10.35;3.05;;;13.50;99.90;;;;;;4916648;29;20490;-75
2023/03/24 09:17:15;;;;;;;13.35;2.67;;;13.70;99.90;;;;;;4934862;28;20035;-77
2023/03/24 09:19:41;;;;;;;10.68;3.00;;;13.60;99.90;;;;;;4924849;29;20039;-76
2023/03/24 09:22:07;;;;;;;12.85;2.97;;;13.40;99.90;;;;;;4917536;29;20048;-77
2023/03/24 09:24:32;;;;;;;10.73;2.70;;;13.80;99.90;;;;;;4924284;28;20509;-74
2023/03/24 09:27:00;;;;;;;14.73;3.35;;;14.10;99.90;;;;;;4945156;28;20411;-75
2023/03/24 09:29:25;;;;;;;12.00;2.90;;;14.00;99.90;;;;;;4930376;29;20074;-75
2023/03/24 09:31:52;;;;;;;11.38;2.83;;;13.80;99.90;;;;;;4941063;29;20059;-76
2023/03/24 09:34:19;;;;;;;11.57;3.00;;;13.30;99.90;;;;;;4938096;28;20036;-76
2023/03/24 09:36:45;;;;;;;11.35;3.13;;;13.00;99.90;;;;;;4933429;29;20130;-75
2023/03/24 09:39:10;;;;;;;12.15;2.78;;;12.70;99.90;;;;;;4902089;29;20090;-76
2023/03/24 09:41:36;;;;;;;10.57;2.50;;;13.10;99.90;;;;;;4901678;29;20521;-76
2023/03/24 09:44:35;;;;;;;13.10;3.47;;;13.90;99.90;;;;;;4940262;28;20409;-75
2023/03/24 09:47:25;;;;;;;13.85;2.65;;;14.20;99.90;;;;;;4917388;29;20060;-73
2023/03/24 09:49:51;;;;;;;11.52;2.92;;;14.00;99.90;;;;;;4919061;29;20051;-73
2023/03/24 09:52:26;;;;;;;8.70;2.17;;;13.80;99.90;;;;;;4922757;29;20122;-72
2023/03/24 09:54:57;;;;;;;11.00;3.08;;;13.90;99.90;;;;;;4942961;29;20043;-72
2023/03/24 09:57:32;;;;;;;11.38;2.78;;;13.80;99.90;;;;;;4945162;28;20085;-73
2023/03/24 09:59:57;;;;;;;9.40;2.65;;;13.50;99.90;;;;;;4930969;29;20040;-74
2023/03/24 10:02:26;;;;;;;14.52;3.50;;;13.10;99.90;;;;;;4933891;29;20087;-74
2023/03/24 10:04:53;;;;;;;11.13;3.08;;;12.70;99.90;;;;;;4936345;29;20042;-74
2023/03/24 10:07:34;;;;;;;12.75;3.00;;;12.60;99.90;;;;;;4936050;29;20051;-74
2023/03/24 10:10:00;;;;;;;11.77;2.47;;;13.10;99.90;;;;;;4929207;29;20082;-73
2023/03/24 10:12:42;;;;;;;12.20;3.03;;;13.90;99.90;;;;;;4935296;29;20506;-73
2023/03/24 10:15:31;;;;;;;11.10;2.58;;;14.70;99.90;;;;;;4936064;29;20039;-75
2023/03/24 10:18:22;;;;;;;11.02;3.00;;;15.40;99.90;;;;;;4936893;29;20047;-74
2023/03/24 10:20:57;;;;;;;14.23;2.75;;;15.40;99.90;;;;;;4923297;29;20042;-74
2023/03/24 10:23:33;;;;;;;11.38;2.78;;;15.70;99.90;;;;;;4921741;29;20058;-74
2023/03/24 10:26:30;;;;;;;10.07;2.50;;;16.20;99.90;;;;;;4939462;29;20047;-74
2023/03/24 10:29:21;;;;;;;10.68;2.65;;;16.60;99.90;;;;;;4922691;29;20039;-74
2023/03/24 10:31:52;;;;;;;11.30;2.33;;;16.90;99.90;;;;;;4919031;29;20042;-74
2023/03/24 10:34:18;;;;;;;11.10;2.10;;;16.90;99.90;;;;;;4920388;29;20175;-73
2023/03/24 10:36:44;;;;;;;10.98;2.45;;;16.70;99.90;;;;;;4920487;29;20046;-74
2023/03/24 10:39:16;;;;;;;8.93;2.20;;;16.60;99.90;;;;;;4911535;29;20040;-74
2023/03/24 10:41:42;;;;;;;8.05;1.73;;;16.60;99.90;;;;;;4932882;29;20039;-74
2023/03/24 10:44:11;;;;;;;10.25;2.42;;;16.50;99.90;;;;;;4936011;29;20039;-74
2023/03/24 10:46:45;;;;;;;11.02;2.30;;;16.40;94.60;;;;;;4942295;28;20042;-73
2023/03/24 10:49:19;;;;;;;8.45;2.20;;;16.30;99.90;;;;;;4918397;29;20054;-74
2023/03/24 10:51:48;;;;;;;11.93;2.20;;;16.60;99.90;;;;;;4923000;29;20054;-73
2023/03/24 10:54:19;;;;;;;10.85;2.40;;;16.80;99.90;;;;;;4920161;29;20044;-73
2023/03/24 10:57:02;;;;;;;10.30;2.42;;;17.00;99.90;;;;;;4924267;29;20470;-73
2023/03/24 10:59:46;;;;;;;9.30;1.88;;;17.20;99.90;;;;;;4922313;29;20051;-73
2023/03/24 11:02:19;;;;;;;;;;;17.20;99.90;;;;;;4935245;29;20040;-73
2023/03/24 11:05:17;;;;;;;10.65;2.90;;;17.40;99.90;;;;;;4903873;29;19922;-73
2023/03/24 11:07:46;;;;;;;8.95;2.00;;;17.60;99.90;;;;;;4919559;29;20054;-73
2023/03/24 11:10:15;;;;;;;8.38;2.35;;;17.30;99.90;;;;;;4942211;29;20090;-73
2023/03/24 11:13:01;;;;;;;9.85;1.92;;;17.00;99.90;;;;;;4911700;29;20050;-73
2023/03/24 11:15:29;;;;;;;10.88;1.90;;;17.50;99.90;;;;;;4937153;29;20047;-73
2023/03/24 11:18:00;;;;;;;10.52;1.90;;;17.50;99.90;;;;;;4954772;29;20047;-73
2023/03/24 11:20:32;;;;;;;11.38;2.22;;;17.90;99.90;;;;;;4926640;29;20047;-73
2023/03/24 11:23:10;;;;;;;12.60;2.17;;;18.30;99.90;;;;;;4949737;29;20098;-74
2023/03/24 11:25:39;;;;;;;7.80;1.58;;;18.50;99.90;;;;;;4921139;29;20371;-73
2023/03/24 11:28:14;;;;;;;7.00;1.77;;;18.50;99.40;;;;;;4957029;28;20241;-73
2023/03/24 11:30:52;;;;;;;4.95;1.73;;;18.30;93.30;;;;;;4932142;28;20403;-73
2023/03/24 11:33:26;;;;;;;5.88;1.70;;;18.10;92.20;;;;;;4939093;28;20062;-73
2023/03/24 11:35:51;;;;;;;7.65;2.13;;;17.80;98.00;;;;;;4928846;28;20038;-73
2023/03/24 11:38:26;;;;;;;8.25;2.10;;;17.90;99.90;;;;;;4937156;29;20398;-73
2023/03/24 11:40:57;;;;;;;8.73;2.30;;;17.80;94.60;;;;;;4919597;28;20047;-73
2023/03/24 11:43:23;;;;;;;5.55;1.60;;;16.80;93.60;;;;;;4935271;28;20046;-73
2023/03/24 11:46:12;;;;;;;5.32;1.60;;;15.80;99.90;;;;;;4928436;28;20049;-75
2023/03/24 11:48:49;;;;;;;5.95;1.92;;;15.20;99.90;;;;;;4919895;29;20035;-74
2023/03/24 11:51:22;;;;;;;8.07;2.08;;;14.80;99.90;;;;;;4936726;29;20050;-74
2023/03/24 11:53:51;;;;;;;9.23;2.30;;;15.00;99.90;;;;;;4930610;29;20198;-74
2023/03/24 11:56:39;;;;;;;6.43;1.77;;;15.60;99.90;;;;;;4934630;29;20120;-74
2023/03/24 11:59:30;;;;;;;8.40;2.30;;;15.90;99.90;;;;;;4927497;29;20067;-74
2023/03/24 12:02:02;;;;;;;6.65;2.42;;;15.70;99.90;;;;;;4915002;29;20101;-74
2023/03/24 12:04:49;;;;;;;6.53;1.67;;;15.40;99.90;;;;;;4935396;29;20050;-75
2023/03/24 12:07:34;;;;;;;6.93;1.95;;;15.30;99.90;;;;;;4929535;29;20095;-75
2023/03/24 12:10:14;;;;;;;6.80;1.88;;;15.50;99.90;;;;;;4920606;29;20086;-75
2023/03/24 12:13:02;;;;;;;8.55;1.88;;;15.30;99.90;;;;;;4927951;29;20063;-77
2023/03/24 12:16:07;;;;;;;6.80;1.75;;;15.10;95.80;;;;;;4945747;28;20120;-74
2023/03/24 12:18:47;;;;;;;9.65;2.60;;;14.90;95.60;;;;;;4926818;28;20043;-76
2023/03/24 12:21:50;;;;;;;8.23;1.92;;;15.40;99.90;;;;;;4937453;29;20424;-75
2023/03/24 12:24:25;;;;;;;6.72;1.65;;;15.70;95.50;;;;;;4902639;29;20047;-75
2023/03/24 12:26:57;;;;;;;9.57;2.08;;;14.80;99.90;;;;;;4914465;29;20138;-74
2023/03/24 12:29:52;;;;;;;9.80;2.17;;;14.90;99.90;;;;;;4920950;29;20047;-74
2023/03/24 12:32:41;;;;;;;11.52;2.78;;;15.50;99.90;;;;;;4937122;29;20043;-74
2023/03/24 12:35:26;;;;;;;10.23;1.90;;;16.30;99.90;;;;;;4942255;28;20057;-74
2023/03/24 12:38:14;;;;;;;8.00;1.92;;;16.90;99.90;;;;;;4956136;28;20050;-74
2023/03/24 12:41:08;;;;;;;10.25;2.05;;;17.70;99.90;;;;;;4956140;28;20077;-74
2023/03/24 12:43:49;;;;;;;10.38;2.08;;;18.00;96.80;;;;;;4940031;28;20049;-74
2023/03/24 12:46:31;;;;;;;10.43;2.42;;;17.30;99.90;;;;;;4940271;28;20043;-75
2023/03/24 12:49:30;;;;;;;10.85;2.55;;;17.70;96.00;;;;;;4956036;28;20054;-75
2023/03/24 12:52:15;;;;;;;10.35;2.35;;;17.80;99.90;;;;;;4935789;29;20050;-75
2023/03/24 12:54:50;;;;;;;8.77;2.05;;;17.80;96.80;;;;;;4936955;29;20054;-75
2023/03/24 12:57:18;;;;;;;11.30;2.17;;;17.00;97.30;;;;;;4936708;29;20046;-75
2023/03/24 12:59:51;;;;;;;8.48;1.73;;;16.10;99.90;;;;;;4920983;29;20043;-75
2023/03/24 13:02:30;;;;;;;9.13;2.03;;;15.50;99.90;;;;;;4936317;29;20043;-75
2023/03/24 13:05:04;;;;;;;9.30;2.35;;;15.00;99.90;;;;;;4936760;29;20043;-74
2023/03/24 13:07:36;;;;;;;7.32;2.03;;;14.50;99.90;;;;;;4952903;29;20474;-74
2023/03/24 13:10:20;;;;;;;8.93;2.42;;;14.20;99.90;;;;;;4948714;28;20443;-74